createdAt,value
2022-09-01T00:02:50.824Z,14.26
2022-09-01T00:07:52.747Z,14.24
2022-09-01T00:12:54.218Z,14.20
2022-09-01T00:17:55.815Z,14.12
2022-09-01T00:22:57.266Z,14.09
2022-09-01T00:28:00.379Z,14.06
2022-09-01T00:33:02.535Z,14.02
2022-09-01T00:38:04.156Z,13.94
2022-09-01T00:43:28.524Z,13.83
2022-09-01T00:48:29.917Z,13.84
2022-09-01T00:53:32.549Z,13.74
2022-09-01T00:58:34.643Z,13.69
2022-09-01T01:03:36.645Z,13.66
2022-09-01T01:08:40.389Z,13.51
2022-09-01T01:13:48.809Z,13.59
2022-09-01T01:18:50.750Z,13.53
2022-09-01T01:23:57.609Z,13.42
2022-09-01T01:29:00.996Z,13.36
2022-09-01T01:34:05.692Z,13.34
2022-09-01T01:39:07.565Z,13.29
2022-09-01T01:44:09.580Z,13.25
2022-09-01T01:49:13.450Z,13.24
2022-09-01T01:54:15.913Z,13.23
2022-09-01T01:59:19.483Z,13.28
2022-09-01T02:04:20.977Z,13.31
2022-09-01T02:09:23.471Z,13.24
2022-09-01T02:14:25.013Z,13.26
2022-09-01T02:19:26.468Z,13.18
2022-09-01T02:24:32.032Z,13.19
2022-09-01T02:29:33.465Z,13.20
2022-09-01T02:34:41.713Z,13.30
2022-09-01T02:39:43.235Z,13.35
2022-09-01T02:44:44.709Z,13.19
2022-09-01T02:49:46.676Z,13.24
2022-09-01T02:54:50.747Z,13.18
2022-09-01T02:59:52.174Z,13.08
2022-09-01T03:04:55.824Z,13.02
2022-09-01T03:09:57.383Z,13.07
2022-09-01T03:14:58.795Z,12.95
2022-09-01T03:20:00.325Z,13.00
2022-09-01T03:25:01.728Z,12.96
2022-09-01T03:30:03.988Z,12.95
2022-09-01T03:35:06.122Z,12.89
2022-09-01T03:40:09.223Z,12.87
2022-09-01T03:45:12.789Z,12.93
2022-09-01T03:50:20.595Z,12.89
2022-09-01T03:55:24.455Z,12.85
2022-09-01T04:00:29.986Z,12.78
2022-09-01T04:05:33.906Z,12.77
2022-09-01T04:10:37.968Z,12.80
2022-09-01T04:15:39.533Z,12.85
2022-09-01T04:20:48.600Z,12.80
2022-09-01T04:25:54.175Z,12.89
2022-09-01T04:30:57.036Z,12.90
2022-09-01T04:36:00.763Z,12.86
2022-09-01T04:41:06.786Z,12.80
2022-09-01T04:46:08.245Z,12.80
2022-09-01T04:51:10.515Z,12.69
2022-09-01T04:56:11.996Z,12.71
2022-09-01T05:01:20.966Z,12.70
2022-09-01T05:06:22.515Z,12.72
2022-09-01T05:11:24.146Z,12.63
2022-09-01T05:16:30.145Z,12.61
2022-09-01T05:21:31.947Z,12.61
2022-09-01T05:26:34.978Z,12.57
2022-09-01T05:31:38.007Z,12.63
2022-09-01T05:36:42.346Z,12.65
2022-09-01T05:41:44.081Z,12.77
2022-09-01T05:46:46.825Z,13.02
2022-09-01T05:51:51.707Z,13.18
2022-09-01T05:56:55.756Z,13.31
2022-09-01T06:01:57.713Z,13.57
2022-09-01T06:07:06.718Z,13.67
2022-09-01T06:12:18.077Z,14.00
2022-09-01T06:17:24.964Z,14.25
2022-09-01T06:22:28.249Z,14.52
2022-09-01T06:27:30.061Z,14.85
2022-09-01T06:32:33.733Z,14.96
2022-09-01T06:37:35.353Z,15.14
2022-09-01T06:42:37.951Z,15.41
2022-09-01T06:47:39.412Z,15.87
2022-09-01T06:58:07.309Z,16.14
2022-09-01T07:03:11.102Z,15.80
2022-09-01T07:08:17.855Z,16.02
2022-09-01T07:13:22.748Z,16.53
2022-09-01T07:18:25.453Z,17.18
2022-09-01T07:23:46.210Z,17.35
2022-09-01T07:28:50.856Z,17.66
2022-09-01T07:33:55.751Z,18.16
2022-09-01T07:44:38.617Z,18.34
2022-09-01T07:50:11.532Z,18.59
2022-09-01T07:55:02.880Z,18.80
2022-09-01T08:00:06.166Z,19.12
2022-09-01T08:05:09.279Z,19.06
2022-09-01T08:10:11.003Z,19.54
2022-09-01T08:15:13.925Z,20.01
2022-09-01T08:20:39.570Z,19.59
2022-09-01T08:25:42.439Z,19.81
2022-09-01T08:30:52.487Z,20.16
2022-09-01T08:35:55.490Z,19.96
2022-09-01T08:40:59.025Z,20.17
2022-09-01T08:46:12.322Z,20.64
2022-09-01T08:51:23.855Z,20.70
2022-09-01T08:56:25.776Z,20.53
2022-09-01T09:01:31.642Z,20.56
2022-09-01T09:06:39.031Z,20.75
2022-09-01T09:11:40.874Z,20.60
2022-09-01T09:16:44.036Z,21.12
2022-09-01T09:21:47.725Z,20.95
2022-09-01T09:26:52.895Z,21.36
2022-09-01T09:37:34.901Z,22.09
2022-09-01T09:42:39.843Z,22.35
2022-09-01T09:47:44.684Z,22.73
2022-09-01T09:52:48.098Z,22.83
2022-09-01T09:57:50.728Z,23.06
2022-09-01T10:03:01.445Z,23.34
2022-09-01T10:08:08.168Z,23.50
2022-09-01T10:13:22.129Z,23.61
2022-09-01T10:18:37.529Z,24.14
2022-09-01T10:23:41.869Z,24.51
2022-09-01T10:29:02.977Z,24.77
2022-09-01T10:34:05.831Z,24.94
2022-09-01T10:39:11.408Z,24.30
2022-09-01T10:44:35.795Z,24.52
2022-09-01T10:49:46.433Z,24.72
2022-09-01T10:54:55.856Z,24.66
2022-09-01T11:06:11.177Z,24.97
2022-09-01T11:11:25.331Z,24.71
2022-09-01T11:22:29.995Z,25.15
2022-09-01T11:27:49.537Z,25.44
2022-09-01T11:32:53.445Z,25.71
2022-09-01T11:38:02.785Z,25.82
2022-09-01T11:43:12.537Z,25.13
2022-09-01T11:48:14.867Z,25.40
2022-09-01T11:53:21.741Z,25.59
2022-09-01T11:58:27.189Z,25.38
2022-09-01T12:03:32.135Z,25.32
2022-09-01T12:08:35.662Z,26.19
2022-09-01T12:13:38.202Z,25.79
2022-09-01T12:18:47.567Z,25.52
2022-09-01T12:23:49.440Z,25.34
2022-09-01T12:28:51.079Z,25.36
2022-09-01T12:33:53.566Z,24.87
2022-09-01T12:39:18.110Z,25.15
2022-09-01T12:44:30.484Z,24.97
2022-09-01T12:49:35.259Z,25.19
2022-09-01T12:54:37.222Z,25.63
2022-09-01T12:59:38.831Z,25.50
2022-09-01T13:04:42.131Z,25.26
2022-09-01T13:09:44.368Z,25.27
2022-09-01T13:14:47.711Z,25.40
2022-09-01T13:19:49.362Z,25.90
2022-09-01T13:24:51.146Z,25.04
2022-09-01T13:29:56.186Z,25.44
2022-09-01T13:34:57.757Z,24.95
2022-09-01T13:39:59.485Z,24.86
2022-09-01T13:45:01.333Z,25.12
2022-09-01T13:50:08.587Z,24.89
2022-09-01T13:55:12.189Z,24.65
2022-09-01T14:00:16.039Z,24.82
2022-09-01T14:05:20.680Z,24.90
2022-09-01T14:10:23.264Z,24.99
2022-09-01T14:15:27.378Z,24.51
2022-09-01T14:20:36.043Z,24.76
2022-09-01T14:25:42.135Z,24.94
2022-09-01T14:30:43.967Z,24.41
2022-09-01T14:35:47.050Z,24.73
2022-09-01T14:40:49.303Z,24.42
2022-09-01T14:45:50.831Z,24.73
2022-09-01T14:50:52.875Z,24.35
2022-09-01T14:55:56.940Z,24.55
2022-09-01T15:01:17.444Z,24.29
2022-09-01T15:06:22.831Z,24.19
2022-09-01T15:11:24.331Z,24.08
2022-09-01T15:16:26.287Z,24.32
2022-09-01T15:21:30.670Z,24.29
2022-09-01T15:26:32.510Z,24.03
2022-09-01T15:31:34.067Z,24.17
2022-09-01T15:36:36.343Z,24.14
2022-09-01T15:41:38.187Z,24.06
2022-09-01T15:46:41.150Z,24.28
2022-09-01T15:51:43.810Z,23.94
2022-09-01T15:56:46.820Z,23.98
2022-09-01T16:01:49.595Z,23.84
2022-09-01T16:06:51.201Z,23.86
2022-09-01T16:11:53.574Z,23.81
2022-09-01T16:16:56.721Z,23.75
2022-09-01T16:22:10.544Z,23.87
2022-09-01T16:27:23.059Z,23.77
2022-09-01T16:32:24.603Z,23.63
2022-09-01T16:37:29.363Z,23.70
2022-09-01T16:42:50.686Z,23.75
2022-09-01T16:48:18.553Z,23.55
2022-09-01T16:53:33.035Z,23.43
2022-09-01T16:58:37.581Z,23.35
2022-09-01T17:03:59.400Z,23.28
2022-09-01T17:09:15.562Z,23.30
2022-09-01T17:14:27.837Z,23.18
2022-09-01T17:19:29.377Z,23.14
2022-09-01T17:24:42.940Z,23.08
2022-09-01T17:29:46.405Z,22.99
2022-09-01T17:34:53.974Z,22.84
2022-09-01T17:39:55.847Z,22.73
2022-09-01T17:45:10.462Z,22.66
2022-09-01T17:50:19.011Z,22.54
2022-09-01T17:55:28.246Z,22.39
2022-09-01T18:00:44.667Z,22.29
2022-09-01T18:05:52.066Z,22.10
2022-09-01T18:10:53.548Z,21.96
2022-09-01T18:15:59.963Z,21.72
2022-09-01T18:21:05.011Z,21.58
2022-09-01T18:26:12.423Z,21.46
2022-09-01T18:31:24.621Z,21.24
2022-09-01T18:36:39.024Z,21.00
2022-09-01T18:41:51.082Z,20.85
2022-09-01T18:47:10.681Z,20.79
2022-09-01T18:52:23.888Z,20.47
2022-09-01T18:57:31.175Z,20.26
2022-09-01T19:02:51.178Z,20.03
2022-09-01T19:08:11.829Z,19.79
2022-09-01T19:13:37.831Z,19.61
2022-09-01T19:19:05.714Z,19.32
2022-09-01T19:24:18.714Z,19.26
2022-09-01T19:29:40.669Z,19.06
2022-09-01T19:34:45.322Z,18.84
2022-09-01T19:39:50.873Z,18.82
2022-09-01T19:45:06.614Z,18.64
2022-09-01T19:50:21.348Z,18.63
2022-09-01T19:55:41.435Z,18.44
2022-09-01T20:00:52.680Z,18.25
2022-09-01T20:05:56.588Z,18.09
2022-09-01T20:11:01.285Z,17.98
2022-09-01T20:16:07.908Z,17.85
2022-09-01T20:21:20.866Z,17.85
2022-09-01T20:26:36.115Z,17.78
2022-09-01T20:31:41.746Z,17.76
2022-09-01T20:36:43.178Z,17.77
2022-09-01T20:41:49.250Z,17.62
2022-09-01T20:46:51.810Z,17.57
2022-09-01T20:51:59.838Z,17.45
2022-09-01T20:57:11.943Z,17.35
2022-09-01T21:02:19.676Z,17.26
2022-09-01T21:07:40.001Z,17.25
2022-09-01T21:12:47.501Z,17.14
2022-09-01T21:17:58.564Z,17.07
2022-09-01T21:23:00.567Z,17.05
2022-09-01T21:28:05.064Z,17.04
2022-09-01T21:33:06.513Z,17.03
2022-09-01T21:38:08.076Z,17.00
2022-09-01T21:43:15.951Z,16.98
2022-09-01T21:48:17.882Z,16.95
2022-09-01T21:53:20.537Z,16.96
2022-09-01T21:58:22.066Z,16.84
2022-09-01T22:03:24.164Z,16.78
2022-09-01T22:08:26.114Z,16.76
2022-09-01T22:13:27.690Z,16.75
2022-09-01T22:18:29.309Z,16.74
2022-09-01T22:23:30.946Z,16.75
2022-09-01T22:28:32.451Z,16.69
2022-09-01T22:33:34.137Z,16.68
2022-09-01T22:38:35.806Z,16.57
2022-09-01T22:43:37.219Z,16.47
2022-09-01T22:48:38.616Z,16.46
2022-09-01T22:53:41.368Z,16.40
2022-09-01T22:58:43.238Z,16.44
2022-09-01T23:03:44.822Z,16.28
2022-09-01T23:08:46.830Z,16.50
2022-09-01T23:13:48.238Z,16.47
2022-09-01T23:18:50.233Z,16.46
2022-09-01T23:23:58.319Z,16.87
2022-09-01T23:29:00.675Z,17.03
2022-09-01T23:34:02.365Z,17.26
2022-09-01T23:39:05.552Z,17.25
2022-09-01T23:44:09.672Z,17.29
2022-09-01T23:49:12.293Z,17.21
2022-09-01T23:54:13.743Z,17.19
2022-09-01T23:59:15.450Z,17.19
